Terminal Aerodrome Forecast
Issued by NWS Pueblo, CO

Home | Current Version | Previous Version | Text Only | Print | Product List | Glossary On
Versions: 1 2 3 4 5 6 7 8 9 10 11 12 13 14 15 16 17 18 19 20 21 22 23 24 25 26 27 28 29 30 31 32 33 34 35 36 37 38 39
000
FTUS45 KPUB 251440 AAA
TAFCOS
TAF AMD
KCOS 251440Z 2515/2612 27012KT P6SM SCT200
     FM251700 24014G24KT P6SM FEW120 BKN200
     FM252200 16010KT P6SM SCT080 BKN120
     FM260300 03015G25KT P6SM VCSH SCT020 BKN060
     FM260600 01015KT 3SM -SN BR SCT010 OVC020=

USA.gov is the U.S. government's official web portal to all federal, state and local government web resources and services.